createdAt,value
2019-04-07T00:01:13.300Z,24.32
2019-04-07T00:03:14.543Z,24.60
2019-04-07T00:05:16.128Z,25.68
2019-04-07T00:09:18.906Z,23.00
2019-04-07T00:11:20.218Z,24.85
2019-04-07T00:13:21.373Z,23.92
2019-04-07T00:15:23.005Z,22.20
2019-04-07T00:19:25.398Z,25.70
2019-04-07T00:21:26.550Z,26.20
2019-04-07T00:23:27.687Z,27.27
2019-04-07T00:25:28.927Z,28.02
2019-04-07T00:27:30.309Z,31.60
2019-04-07T00:29:31.613Z,27.87
2019-04-07T00:31:32.849Z,26.33
2019-04-07T00:33:33.996Z,26.85
2019-04-07T00:35:35.139Z,25.10
2019-04-07T00:37:36.381Z,26.52
2019-04-07T00:39:37.661Z,25.20
2019-04-07T00:41:38.875Z,24.23
2019-04-07T00:43:40.574Z,23.38
2019-04-07T00:45:41.850Z,24.07
2019-04-07T00:47:43.006Z,24.02
2019-04-07T00:49:44.390Z,25.23
2019-04-07T00:51:46.626Z,25.88
2019-04-07T00:55:48.827Z,26.82
2019-04-07T00:57:50.737Z,29.57
2019-04-07T00:59:52.393Z,32.85
2019-04-07T01:01:53.742Z,31.55
2019-04-07T01:03:55.703Z,32.83
2019-04-07T01:05:57.554Z,31.93
2019-04-07T01:07:59.205Z,35.50
2019-04-07T01:10:00.743Z,32.23
2019-04-07T01:12:02.074Z,29.37
2019-04-07T01:14:03.424Z,28.73
2019-04-07T01:16:04.898Z,30.90
2019-04-07T01:18:06.229Z,29.55
2019-04-07T01:20:08.898Z,27.20
2019-04-07T01:22:10.338Z,25.40
2019-04-07T01:24:12.275Z,23.98
2019-04-07T01:26:13.832Z,22.90
2019-04-07T01:28:15.059Z,21.87
2019-04-07T01:30:16.301Z,21.00
2019-04-07T01:32:17.562Z,20.68
2019-04-07T01:34:18.821Z,20.70
2019-04-07T01:36:19.970Z,21.87
2019-04-07T01:38:21.333Z,23.12
2019-04-07T01:42:43.542Z,22.70
2019-04-07T01:45:03.086Z,23.60
2019-04-07T01:47:12.338Z,22.48
2019-04-07T01:49:32.196Z,25.30
2019-04-07T01:51:35.273Z,25.75
2019-04-07T01:53:50.976Z,26.42
2019-04-07T01:56:00.313Z,24.82
2019-04-07T01:58:18.534Z,25.57
2019-04-07T02:00:24.984Z,26.20
2019-04-07T02:02:28.150Z,26.73
2019-04-07T02:04:37.395Z,25.30
2019-04-07T02:06:46.366Z,23.90
2019-04-07T02:08:49.563Z,22.00
2019-04-07T02:11:02.522Z,26.27
2019-04-07T02:13:22.693Z,21.40
2019-04-07T02:15:31.874Z,23.92
2019-04-07T02:17:41.546Z,21.30
2019-04-07T02:19:48.259Z,21.00
2019-04-07T02:22:06.919Z,22.15
2019-04-07T02:24:10.454Z,22.27
2019-04-07T02:26:27.735Z,22.37
2019-04-07T02:28:48.376Z,22.52
2019-04-07T02:30:52.253Z,22.93
2019-04-07T02:33:12.666Z,21.60
2019-04-07T02:35:18.961Z,21.73
2019-04-07T02:37:36.895Z,22.70
2019-04-07T02:39:46.370Z,22.60
2019-04-07T02:42:00.300Z,24.32
2019-04-07T02:44:04.834Z,25.43
2019-04-07T02:46:20.391Z,24.85
2019-04-07T02:48:41.260Z,25.10
2019-04-07T02:50:47.667Z,24.27
2019-04-07T02:52:54.693Z,22.85
2019-04-07T02:55:07.326Z,25.27
2019-04-07T02:57:27.006Z,25.70
2019-04-07T02:59:48.146Z,23.95
2019-04-07T03:02:03.573Z,24.13
2019-04-07T03:04:07.395Z,22.87
2019-04-07T03:06:14.684Z,21.07
2019-04-07T03:08:35.665Z,22.27
2019-04-07T03:10:57.361Z,22.50
2019-04-07T03:13:01.026Z,23.67
2019-04-07T03:15:17.166Z,23.67
2019-04-07T03:17:36.171Z,24.98
2019-04-07T03:19:49.012Z,23.83
2019-04-07T03:22:04.496Z,23.87
2019-04-07T03:24:08.050Z,25.08
2019-04-07T03:26:29.185Z,24.30
2019-04-07T03:28:33.365Z,25.90
2019-04-07T03:30:40.965Z,25.23
2019-04-07T03:33:02.803Z,25.08
2019-04-07T03:35:14.770Z,24.10
2019-04-07T03:37:34.366Z,23.55
2019-04-07T03:39:31.902Z,21.90
2019-04-07T03:41:35.144Z,22.02
2019-04-07T03:43:47.349Z,21.30
2019-04-07T03:45:50.401Z,21.60
2019-04-07T03:47:54.533Z,20.90
2019-04-07T03:49:58.281Z,19.17
2019-04-07T03:52:02.010Z,19.67
2019-04-07T03:54:09.060Z,19.70
2019-04-07T03:56:15.887Z,20.23
2019-04-07T03:58:36.341Z,19.75
2019-04-07T04:01:00.531Z,18.40
2019-04-07T04:03:04.498Z,20.37
2019-04-07T04:05:24.729Z,19.40
2019-04-07T04:07:36.573Z,19.57
2019-04-07T04:09:42.861Z,13.50
2019-04-07T04:11:47.029Z,17.32
2019-04-07T04:13:59.737Z,22.98
2019-04-07T04:16:03.094Z,21.82
2019-04-07T04:18:05.466Z,23.83
2019-04-07T04:20:07.125Z,23.25
2019-04-07T04:22:09.149Z,23.87
2019-04-07T04:24:10.380Z,23.83
2019-04-07T04:26:11.611Z,24.05
2019-04-07T04:28:14.259Z,21.85
2019-04-07T04:30:15.500Z,24.87
2019-04-07T04:32:16.936Z,24.35
2019-04-07T04:34:19.082Z,22.22
2019-04-07T04:36:20.414Z,24.00
2019-04-07T04:38:21.898Z,24.60
2019-04-07T04:40:23.102Z,25.25
2019-04-07T04:42:25.038Z,24.12
2019-04-07T04:44:26.433Z,24.05
2019-04-07T04:46:27.628Z,23.95
2019-04-07T04:48:28.834Z,24.27
2019-04-07T04:50:30.297Z,22.42
2019-04-07T04:52:31.766Z,22.55
2019-04-07T04:54:33.351Z,24.30
2019-04-07T04:58:36.053Z,22.75
2019-04-07T05:02:40.076Z,23.25
2019-04-07T05:04:41.924Z,22.22
2019-04-07T05:06:43.625Z,24.23
2019-04-07T05:10:47.320Z,23.45
2019-04-07T05:12:48.617Z,21.82
2019-04-07T05:14:50.198Z,23.50
2019-04-07T05:18:52.903Z,20.88
2019-04-07T05:20:54.518Z,22.35
2019-04-07T05:22:55.669Z,23.05
2019-04-07T05:24:56.817Z,24.35
2019-04-07T05:26:58.549Z,25.23
2019-04-07T05:29:00.425Z,28.35
2019-04-07T05:31:02.347Z,29.07
2019-04-07T05:33:03.584Z,27.65
2019-04-07T05:35:06.606Z,31.20
2019-04-07T05:37:07.752Z,37.05
2019-04-07T05:39:10.212Z,30.70
2019-04-07T05:41:11.804Z,36.25
2019-04-07T05:43:12.990Z,38.35
2019-04-07T05:45:14.972Z,34.25
2019-04-07T05:47:16.500Z,31.80
2019-04-07T05:49:18.777Z,25.57
2019-04-07T05:51:20.955Z,26.52
2019-04-07T05:53:22.128Z,25.65
2019-04-07T05:55:24.329Z,23.70
2019-04-07T05:57:26.189Z,24.27
2019-04-07T05:59:27.616Z,21.62
2019-04-07T06:01:29.047Z,25.62
2019-04-07T06:03:30.818Z,26.85
2019-04-07T06:05:32.145Z,26.57
2019-04-07T06:07:35.927Z,20.43
2019-04-07T06:09:37.248Z,25.52
2019-04-07T06:11:38.828Z,25.90
2019-04-07T06:13:43.637Z,26.97
2019-04-07T06:15:43.262Z,27.05
2019-04-07T06:17:44.762Z,27.37
2019-04-07T06:19:46.024Z,26.05
2019-04-07T06:21:48.912Z,35.15
2019-04-07T06:23:50.789Z,32.80
2019-04-07T06:25:52.305Z,39.40
2019-04-07T06:27:54.287Z,41.45
2019-04-07T06:29:58.990Z,40.35
2019-04-07T06:32:02.411Z,33.28
2019-04-07T06:34:02.126Z,32.60
2019-04-07T06:36:03.848Z,35.63
2019-04-07T06:38:07.035Z,35.73
2019-04-07T06:40:09.068Z,37.73
2019-04-07T06:42:10.367Z,39.63
2019-04-07T06:44:16.549Z,41.85
2019-04-07T06:46:17.456Z,38.48
2019-04-07T06:48:19.043Z,37.15
2019-04-07T06:50:49.306Z,40.20
2019-04-07T06:52:48.671Z,39.20
2019-04-07T06:54:57.438Z,41.08
2019-04-07T06:57:12.332Z,40.23
2019-04-07T06:59:33.993Z,42.00
2019-04-07T07:01:39.941Z,39.35
2019-04-07T07:03:54.776Z,40.30
2019-04-07T07:06:17.386Z,40.33
2019-04-07T07:08:24.633Z,41.50
2019-04-07T07:10:30.425Z,41.58
2019-04-07T07:12:47.478Z,41.55
2019-04-07T07:15:07.897Z,40.33
2019-04-07T07:17:22.679Z,41.73
2019-04-07T07:19:34.678Z,42.70
2019-04-07T07:21:41.324Z,38.05
2019-04-07T07:23:47.687Z,39.75
2019-04-07T07:25:47.540Z,41.65
2019-04-07T07:27:49.161Z,40.63
2019-04-07T07:29:52.817Z,38.98
2019-04-07T07:31:59.779Z,38.88
2019-04-07T07:33:57.161Z,39.27
2019-04-07T07:35:59.213Z,38.28
2019-04-07T07:38:00.995Z,36.65
2019-04-07T07:40:07.538Z,36.80
2019-04-07T07:42:08.192Z,35.17
2019-04-07T07:44:09.778Z,34.38
2019-04-07T07:48:12.075Z,35.43
2019-04-07T07:50:13.587Z,32.48
2019-04-07T07:54:18.333Z,30.62
2019-04-07T07:56:20.196Z,31.20
2019-04-07T07:58:21.545Z,32.15
2019-04-07T08:00:22.690Z,31.30
2019-04-07T08:02:23.855Z,31.33
2019-04-07T08:04:26.426Z,29.98
2019-04-07T08:06:28.283Z,29.12
2019-04-07T08:08:29.815Z,28.75
2019-04-07T08:12:34.461Z,29.18
2019-04-07T08:14:35.152Z,28.77
2019-04-07T08:16:37.272Z,27.98
2019-04-07T08:18:42.756Z,27.27
2019-04-07T08:20:44.909Z,27.15
2019-04-07T08:22:46.092Z,28.67
2019-04-07T08:24:50.395Z,26.37
2019-04-07T08:26:50.746Z,27.93
2019-04-07T08:28:53.231Z,27.13
2019-04-07T08:30:54.634Z,26.82
2019-04-07T08:32:59.102Z,26.23
2019-04-07T08:35:02.102Z,27.20
2019-04-07T08:37:02.763Z,26.82
2019-04-07T08:39:07.253Z,27.07
2019-04-07T08:41:10.571Z,26.55
2019-04-07T08:43:12.439Z,25.92
2019-04-07T08:45:14.553Z,27.05
2019-04-07T08:47:20.003Z,25.55
2019-04-07T08:49:23.697Z,26.23
2019-04-07T08:51:22.550Z,26.15
2019-04-07T08:53:24.098Z,25.85
2019-04-07T08:55:25.673Z,24.85
2019-04-07T08:59:30.307Z,24.67
2019-04-07T09:01:32.422Z,24.70
2019-04-07T09:03:34.682Z,25.92
2019-04-07T09:05:36.536Z,24.67
2019-04-07T09:07:37.998Z,26.05
2019-04-07T09:09:44.891Z,24.37
2019-04-07T09:11:42.926Z,25.27
2019-04-07T09:13:46.545Z,25.97
2019-04-07T09:15:50.045Z,24.82
2019-04-07T09:17:53.224Z,26.48
2019-04-07T09:19:59.615Z,25.27
2019-04-07T09:22:06.279Z,25.70
2019-04-07T09:24:29.950Z,25.08
2019-04-07T09:26:47.613Z,25.27
2019-04-07T09:28:53.420Z,26.65
2019-04-07T09:31:03.319Z,25.27
2019-04-07T09:33:22.877Z,25.40
2019-04-07T09:35:42.497Z,25.50
2019-04-07T09:37:45.652Z,25.85
2019-04-07T09:39:57.030Z,27.07
2019-04-07T09:41:59.575Z,26.82
2019-04-07T09:44:14.833Z,25.92
2019-04-07T09:46:27.551Z,27.42
2019-04-07T09:48:50.989Z,27.52
2019-04-07T09:51:07.183Z,26.35
2019-04-07T09:53:19.397Z,27.77
2019-04-07T09:55:26.408Z,27.60
2019-04-07T09:57:44.090Z,28.75
2019-04-07T09:59:56.431Z,27.17
2019-04-07T10:02:15.823Z,25.57
2019-04-07T10:04:21.639Z,26.15
2019-04-07T10:06:42.682Z,26.60
2019-04-07T10:09:02.199Z,26.10
2019-04-07T10:11:17.526Z,25.97
2019-04-07T10:13:24.025Z,24.92
2019-04-07T10:15:32.969Z,26.75
2019-04-07T10:17:36.028Z,25.97
2019-04-07T10:19:50.891Z,28.15
2019-04-07T10:21:55.062Z,27.67
2019-04-07T10:24:07.467Z,26.07
2019-04-07T10:26:16.747Z,26.75
2019-04-07T10:28:19.889Z,26.87
2019-04-07T10:30:32.039Z,26.93
2019-04-07T10:32:44.117Z,28.00
2019-04-07T10:35:05.784Z,27.37
2019-04-07T10:37:11.701Z,27.48
2019-04-07T10:39:14.755Z,25.75
2019-04-07T10:41:30.493Z,26.00
2019-04-07T10:43:34.978Z,28.60
2019-04-07T10:45:38.317Z,27.37
2019-04-07T10:47:41.432Z,26.55
2019-04-07T10:50:00.666Z,27.20
2019-04-07T10:52:17.933Z,26.82
2019-04-07T10:54:21.275Z,27.37
2019-04-07T10:56:39.385Z,26.95
2019-04-07T10:58:59.444Z,25.35
2019-04-07T11:01:19.531Z,26.42
2019-04-07T11:03:37.889Z,27.50
2019-04-07T11:05:58.189Z,28.40
2019-04-07T11:08:01.399Z,22.87
2019-04-07T11:10:15.893Z,24.37
2019-04-07T11:12:19.858Z,26.17
2019-04-07T11:14:26.213Z,24.95
2019-04-07T11:16:47.039Z,25.32
2019-04-07T11:18:53.050Z,25.68
2019-04-07T11:20:57.197Z,22.82
2019-04-07T11:23:18.155Z,25.08
2019-04-07T11:25:21.706Z,23.00
2019-04-07T11:27:33.548Z,22.52
2019-04-07T11:31:41.408Z,24.72
2019-04-07T11:33:50.310Z,22.48
2019-04-07T11:35:59.586Z,24.30
2019-04-07T11:38:09.236Z,22.58
2019-04-07T11:40:12.801Z,22.87
2019-04-07T11:42:34.965Z,21.93
2019-04-07T11:44:44.143Z,24.10
2019-04-07T11:46:56.278Z,22.10
2019-04-07T11:49:00.754Z,23.35
2019-04-07T11:51:10.578Z,23.20
2019-04-07T11:53:28.361Z,24.00
2019-04-07T11:55:31.399Z,27.37
2019-04-07T11:57:35.384Z,27.20
2019-04-07T11:59:39.382Z,28.95
2019-04-07T12:01:57.502Z,24.02
2019-04-07T12:04:09.458Z,24.47
2019-04-07T12:06:16.855Z,30.95
2019-04-07T12:08:20.539Z,26.10
2019-04-07T12:10:26.984Z,26.27
2019-04-07T12:12:42.044Z,26.20
2019-04-07T12:15:02.226Z,27.58
2019-04-07T12:17:12.567Z,25.12
2019-04-07T12:19:22.845Z,23.50
2019-04-07T12:21:25.501Z,26.60
2019-04-07T12:23:31.536Z,26.50
2019-04-07T12:41:13.379Z,27.60
2019-04-07T12:49:47.435Z,24.60
2019-04-07T12:51:54.987Z,21.70
2019-04-07T12:53:56.356Z,24.13
2019-04-07T12:56:11.479Z,24.63
2019-04-07T13:00:57.121Z,22.95
2019-04-07T13:02:53.940Z,24.98
2019-04-07T13:04:59.690Z,20.60
2019-04-07T13:07:22.995Z,24.32
2019-04-07T13:11:37.310Z,26.23
2019-04-07T13:13:48.132Z,23.47
2019-04-07T13:15:52.039Z,23.42
2019-04-07T13:17:56.277Z,24.47
2019-04-07T13:20:08.402Z,22.77
2019-04-07T13:22:13.137Z,24.00
2019-04-07T13:24:28.890Z,22.25
2019-04-07T13:26:32.395Z,23.65
2019-04-07T13:28:40.123Z,23.52
2019-04-07T13:31:00.163Z,24.18
2019-04-07T13:33:23.762Z,21.23
2019-04-07T13:35:26.190Z,21.80
2019-04-07T13:37:38.388Z,25.02
2019-04-07T13:39:42.832Z,22.15
2019-04-07T13:41:59.066Z,23.22
2019-04-07T13:44:07.817Z,21.75
2019-04-07T13:46:21.713Z,20.72
2019-04-07T13:48:25.878Z,21.05
2019-04-07T13:50:34.081Z,18.20
2019-04-07T13:52:57.194Z,19.62
2019-04-07T13:57:25.896Z,23.87
2019-04-07T13:59:42.952Z,21.80
2019-04-07T14:02:01.887Z,20.43
2019-04-07T14:04:17.823Z,20.00
2019-04-07T14:06:27.270Z,20.40
2019-04-07T14:08:33.163Z,21.33
2019-04-07T14:10:37.239Z,22.80
2019-04-07T14:12:50.100Z,20.45
2019-04-07T14:15:10.326Z,20.27
2019-04-07T14:19:25.334Z,17.40
2019-04-07T14:27:43.290Z,19.35
2019-04-07T14:29:50.023Z,18.45
2019-04-07T14:32:02.088Z,18.00
2019-04-07T14:42:46.002Z,20.00
2019-04-07T14:47:10.799Z,20.45
2019-04-07T14:55:45.253Z,21.50
2019-04-07T14:57:51.334Z,21.02
2019-04-07T14:59:58.904Z,19.55
2019-04-07T15:02:02.020Z,19.95
2019-04-07T15:04:05.018Z,20.68
2019-04-07T15:06:06.579Z,21.02
2019-04-07T15:10:45.134Z,23.25
2019-04-07T15:12:51.283Z,22.58
2019-04-07T15:14:52.925Z,22.98
2019-04-07T15:16:54.656Z,23.65
2019-04-07T15:18:56.593Z,22.32
2019-04-07T15:20:57.859Z,22.07
2019-04-07T15:23:00.253Z,22.75
2019-04-07T15:25:02.151Z,20.25
2019-04-07T15:27:05.621Z,22.52
2019-04-07T15:29:09.259Z,20.10
2019-04-07T15:31:12.049Z,20.75
2019-04-07T15:35:15.515Z,18.92
2019-04-07T15:37:21.378Z,16.62
2019-04-07T15:39:21.529Z,16.60
2019-04-07T15:41:23.321Z,18.25
2019-04-07T15:43:25.381Z,17.37
2019-04-07T15:45:26.904Z,16.77
2019-04-07T15:47:28.723Z,18.42
2019-04-07T15:49:30.007Z,18.62
2019-04-07T15:51:34.021Z,18.87
2019-04-07T15:53:34.570Z,18.25
2019-04-07T15:55:46.693Z,16.93
2019-04-07T15:57:39.034Z,16.15
2019-04-07T16:01:44.152Z,17.87
2019-04-07T16:03:50.489Z,18.25
2019-04-07T16:05:49.038Z,18.42
2019-04-07T16:07:53.153Z,17.70
2019-04-07T16:09:56.599Z,16.77
2019-04-07T16:11:58.273Z,16.00
2019-04-07T16:13:59.699Z,16.70
2019-04-07T16:16:01.588Z,16.30
2019-04-07T16:18:05.409Z,16.60
2019-04-07T16:20:19.748Z,17.07
2019-04-07T16:22:14.267Z,16.27
2019-04-07T16:24:16.735Z,17.05
2019-04-07T16:26:18.357Z,16.12
2019-04-07T16:28:20.655Z,15.78
2019-04-07T16:30:23.266Z,16.17
2019-04-07T16:32:26.730Z,16.73
2019-04-07T16:34:28.357Z,15.23
2019-04-07T16:36:30.234Z,15.05
2019-04-07T16:38:31.960Z,17.02
2019-04-07T16:40:33.939Z,15.13
2019-04-07T16:42:35.964Z,15.15
2019-04-07T16:44:40.649Z,15.70
2019-04-07T16:46:40.270Z,14.50
2019-04-07T16:48:41.696Z,15.98
2019-04-07T16:52:44.337Z,14.98
2019-04-07T16:54:45.828Z,15.85
2019-04-07T16:58:50.240Z,13.85
2019-04-07T17:00:51.966Z,14.55
2019-04-07T17:02:53.517Z,14.33
2019-04-07T17:04:55.795Z,16.10
2019-04-07T17:07:03.304Z,15.25
2019-04-07T17:09:01.026Z,16.73
2019-04-07T17:11:07.077Z,15.60
2019-04-07T17:13:14.633Z,16.57
2019-04-07T17:15:08.828Z,16.42
2019-04-07T17:17:10.074Z,16.52
2019-04-07T17:19:11.318Z,16.05
2019-04-07T17:21:16.048Z,15.20
2019-04-07T17:23:21.323Z,16.55
2019-04-07T17:25:20.639Z,15.72
2019-04-07T17:29:24.717Z,13.93
2019-04-07T17:31:29.618Z,15.48
2019-04-07T17:33:32.612Z,15.50
2019-04-07T17:35:33.230Z,16.57
2019-04-07T17:37:35.055Z,17.02
2019-04-07T17:39:40.591Z,16.45
2019-04-07T17:41:41.912Z,17.15
2019-04-07T17:43:56.883Z,15.43
2019-04-07T17:46:02.371Z,18.50
2019-04-07T17:48:07.108Z,17.02
2019-04-07T17:50:30.380Z,17.70
2019-04-07T17:52:50.267Z,16.75
2019-04-07T17:55:11.031Z,16.15
2019-04-07T17:57:26.729Z,16.05
2019-04-07T17:59:37.790Z,17.48
2019-04-07T18:01:41.047Z,16.47
2019-04-07T18:04:03.498Z,16.02
2019-04-07T18:06:15.660Z,16.50
2019-04-07T18:08:18.068Z,16.60
2019-04-07T18:10:26.729Z,17.98
2019-04-07T18:12:45.593Z,15.78
2019-04-07T18:14:58.540Z,16.82
2019-04-07T18:17:02.472Z,16.20
2019-04-07T18:19:11.977Z,16.67
2019-04-07T18:21:32.001Z,16.05
2019-04-07T18:23:38.302Z,15.83
2019-04-07T18:25:44.618Z,16.77
2019-04-07T18:28:04.235Z,17.55
2019-04-07T18:30:12.112Z,16.17
2019-04-07T18:32:16.596Z,17.42
2019-04-07T18:34:37.681Z,16.60
2019-04-07T18:36:49.826Z,17.33
2019-04-07T18:38:53.209Z,17.80
2019-04-07T18:41:01.400Z,16.17
2019-04-07T18:43:21.514Z,16.95
2019-04-07T18:45:25.237Z,17.32
2019-04-07T18:47:41.616Z,17.92
2019-04-07T18:49:44.962Z,17.57
2019-04-07T18:51:49.457Z,17.82
2019-04-07T18:54:06.399Z,19.87
2019-04-07T18:56:14.082Z,19.30
2019-04-07T18:58:20.381Z,20.48
2019-04-07T19:00:32.459Z,20.23
2019-04-07T19:02:44.177Z,20.25
2019-04-07T19:05:01.372Z,20.17
2019-04-07T19:07:04.237Z,21.37
2019-04-07T19:09:17.800Z,19.87
2019-04-07T19:11:34.172Z,19.23
2019-04-07T19:13:37.332Z,19.98
2019-04-07T19:15:41.193Z,19.35
2019-04-07T19:18:03.501Z,17.23
2019-04-07T19:20:19.439Z,17.80
2019-04-07T19:22:40.978Z,19.00
2019-04-07T19:24:44.053Z,18.75
2019-04-07T19:27:12.011Z,16.82
2019-04-07T19:29:08.540Z,18.90
2019-04-07T19:31:16.893Z,18.07
2019-04-07T19:33:19.406Z,18.00
2019-04-07T19:35:23.910Z,18.85
2019-04-07T19:37:43.267Z,18.98
2019-04-07T19:40:04.259Z,17.85
2019-04-07T19:42:11.142Z,19.50
2019-04-07T19:44:17.284Z,18.60
2019-04-07T19:46:22.354Z,18.65
2019-04-07T19:48:39.049Z,18.60
2019-04-07T19:50:40.548Z,18.98
2019-04-07T19:52:43.675Z,19.10
2019-04-07T19:54:58.753Z,20.40
2019-04-07T19:57:13.759Z,18.48
2019-04-07T19:59:39.391Z,19.37
2019-04-07T20:01:52.576Z,19.35
2019-04-07T20:04:12.630Z,18.90
2019-04-07T20:06:22.352Z,18.73
2019-04-07T20:08:23.441Z,16.12
2019-04-07T20:10:32.541Z,17.30
2019-04-07T20:12:42.933Z,19.65
2019-04-07T20:15:01.382Z,18.20
2019-04-07T20:16:57.775Z,19.37
2019-04-07T20:19:16.652Z,18.48
2019-04-07T20:21:19.950Z,17.37
2019-04-07T20:23:39.282Z,19.17
2019-04-07T20:25:49.300Z,18.48
2019-04-07T20:27:57.305Z,19.87
2019-04-07T20:30:06.285Z,19.55
2019-04-07T20:32:21.275Z,18.20
2019-04-07T20:34:29.709Z,19.15
2019-04-07T20:36:33.779Z,18.25
2019-04-07T20:38:40.168Z,20.30
2019-04-07T20:40:52.243Z,17.45
2019-04-07T20:42:58.306Z,17.60
2019-04-07T20:45:06.618Z,18.12
2019-04-07T20:47:22.991Z,17.73
2019-04-07T20:49:43.606Z,17.23
2019-04-07T20:51:50.610Z,16.65
2019-04-07T20:53:59.793Z,16.73
2019-04-07T20:56:12.878Z,17.27
2019-04-07T20:58:22.810Z,17.10
2019-04-07T21:00:24.901Z,15.83
2019-04-07T21:02:37.651Z,16.20
2019-04-07T21:04:59.148Z,16.52
2019-04-07T21:07:15.163Z,15.72
2019-04-07T21:09:35.861Z,16.95
2019-04-07T21:11:45.804Z,16.05
2019-04-07T21:13:52.761Z,16.75
2019-04-07T21:16:12.133Z,15.90
2019-04-07T21:18:24.236Z,15.32
2019-04-07T21:20:42.534Z,16.93
2019-04-07T21:22:54.914Z,16.50
2019-04-07T21:25:08.149Z,17.48
2019-04-07T21:27:14.392Z,15.98
2019-04-07T21:29:18.123Z,17.87
2019-04-07T21:31:24.226Z,17.67
2019-04-07T21:33:44.174Z,16.90
2019-04-07T21:35:50.466Z,17.00
2019-04-07T21:38:08.386Z,16.30
2019-04-07T21:40:18.651Z,16.55
2019-04-07T21:42:22.244Z,15.13
2019-04-07T21:44:43.750Z,16.57
2019-04-07T21:46:56.530Z,16.27
2019-04-07T21:49:17.820Z,16.00
2019-04-07T21:51:37.803Z,15.18
2019-04-07T21:53:53.378Z,16.48
2019-04-07T21:56:06.015Z,15.25
2019-04-07T21:58:11.117Z,17.52
2019-04-07T22:00:14.590Z,17.67
2019-04-07T22:02:20.429Z,17.37
2019-04-07T22:04:30.113Z,16.32
2019-04-07T22:06:37.157Z,16.65
2019-04-07T22:08:45.325Z,16.25
2019-04-07T22:10:49.924Z,17.42
2019-04-07T22:12:49.833Z,17.52
2019-04-07T22:14:51.073Z,14.73
2019-04-07T22:16:52.229Z,16.93
2019-04-07T22:18:53.431Z,18.12
2019-04-07T22:20:56.056Z,15.95
2019-04-07T22:23:01.091Z,15.58
2019-04-07T22:25:01.220Z,17.15
2019-04-07T22:27:05.302Z,16.50
2019-04-07T22:29:05.629Z,16.55
2019-04-07T22:31:08.908Z,15.43
2019-04-07T22:33:10.431Z,15.75
2019-04-07T22:35:12.725Z,15.18
2019-04-07T22:37:15.543Z,16.12
2019-04-07T22:39:17.084Z,15.75
2019-04-07T22:41:18.231Z,14.83
2019-04-07T22:43:20.300Z,15.98
2019-04-07T22:45:26.470Z,15.10
2019-04-07T22:47:25.532Z,14.93
2019-04-07T22:49:31.490Z,14.75
2019-04-07T22:51:30.679Z,14.93
2019-04-07T22:53:33.019Z,15.08
2019-04-07T22:55:35.938Z,15.05
2019-04-07T22:57:37.562Z,15.03
2019-04-07T22:59:39.805Z,13.03
2019-04-07T23:01:41.097Z,15.60
2019-04-07T23:03:42.577Z,14.15
2019-04-07T23:05:44.003Z,16.05
2019-04-07T23:07:45.943Z,16.67
2019-04-07T23:09:47.548Z,15.88
2019-04-07T23:11:49.181Z,15.98
2019-04-07T23:13:51.344Z,15.25
2019-04-07T23:15:54.482Z,16.37
2019-04-07T23:17:57.706Z,14.63
2019-04-07T23:19:58.953Z,15.60
2019-04-07T23:22:01.107Z,15.15
2019-04-07T23:24:03.402Z,14.63
2019-04-07T23:26:05.439Z,15.15
2019-04-07T23:28:06.833Z,15.53
2019-04-07T23:30:09.769Z,15.45
2019-04-07T23:32:11.696Z,15.30
2019-04-07T23:34:12.980Z,14.55
2019-04-07T23:36:14.120Z,15.32
2019-04-07T23:38:15.543Z,14.07
2019-04-07T23:40:16.805Z,13.70
2019-04-07T23:42:18.072Z,13.15
2019-04-07T23:44:20.214Z,14.90
2019-04-07T23:46:25.043Z,14.07
2019-04-07T23:48:24.691Z,12.55
2019-04-07T23:50:25.826Z,13.95
2019-04-07T23:52:27.198Z,15.10
2019-04-07T23:54:28.962Z,16.67
2019-04-07T23:56:30.265Z,15.40
2019-04-07T23:58:31.611Z,15.28
